Munchen>> — DF8083 — position and weather

sailwx.info

Track history (hours):
 
Tides and Currents Weather Stations Pressure Air Temp Water Temp Dewpoint Dewpoint Depression Visibility Wind Speed Wind Dir Waves Ship Positions

Munchen>>

Last reported at 2018-Jun-14 04:25 UTC. Time now 2018-Jun-18 11:27 UTC.
Position N 45°14' E 028°43'.

Length 37 m; draft 0.3 m.

Type: Towing. MMSI: 211644640.

Date/timePositionNaut miles runAvg speedWind from/ knotsBaromVisibWave heightAir tempDewpointWater temp
2018-Jun-14 04:25N 45°14' E 028°43'3 2.8
2018-Jun-14 03:24N 45°14' E 028°47'1 2.5
2018-Jun-14 03:00N 45°15' E 028°48'2 2.5
2018-Jun-14 02:14N 45°16' E 028°45'0 1.0
2018-Jun-14 01:57N 45°17' E 028°45'1 2.2
2018-Jun-14 01:30N 45°17' E 028°46'1 2.5
2018-Jun-14 01:00N 45°18' E 028°47'1 2.7
2018-Jun-14 00:30N 45°19' E 028°48'1 2.7
2018-Jun-14 00:00N 45°19' E 028°47'1 2.4
2018-Jun-13 23:30N 45°20' E 028°48'1 2.5
2018-Jun-13 22:59N 45°20' E 028°50'1 1.0
2018-Jun-13 22:26N 45°19' E 028°50'0 0.0
2018-Jun-13 21:57N 45°19' E 028°50'0 0.0
2018-Jun-13 17:57N 45°19' E 028°50'0 0.0
2018-Jun-13 17:25N 45°19' E 028°50'72 1.7
2018-Jun-11 22:41N 44°17' E 027°59'1 3.7
2018-Jun-11 22:30N 44°18' E 027°59'3 3.6
2018-Jun-11 21:41N 44°21' E 028°01'1 3.8
2018-Jun-11 21:23N 44°22' E 028°01'1 0.4
2018-Jun-11 18:16N 44°23' E 028°02'6 0.5
2018-Jun-11 06:17N 44°17' E 028°05'2 6.2
2018-Jun-11 06:00N 44°16' E 028°07'3 5.4
2018-Jun-11 05:30N 44°16' E 028°11'3 6.1
2018-Jun-11 05:00N 44°15' E 028°15'3 6.2
2018-Jun-11 04:30N 44°15' E 028°19'3 5.4
2018-Jun-11 04:00N 44°14' E 028°22'3 5.8
2018-Jun-11 03:30N 44°11' E 028°24'4 5.7
2018-Jun-11 02:44N 44°07' E 028°27'1 5.7
2018-Jun-11 02:29N 44°06' E 028°28'3 5.7
2018-Jun-11 01:58N 44°06' E 028°32'3 5.8
2018-Jun-11 01:30N 44°06' E 028°36'1 1.9
2018-Jun-11 01:00N 44°06' E 028°37'1 1.9
2018-Jun-11 00:30N 44°06' E 028°39'1 2.1
2018-Jun-11 00:00N 44°07' E 028°39'0 0.0
2018-Jun-10 23:30N 44°07' E 028°39'0 0.1
2018-Jun-10 23:00N 44°07' E 028°39'1 2.0
2018-Jun-10 22:30N 44°06' E 028°39'1 2.2
2018-Jun-10 22:00N 44°06' E 028°37'1 1.3
2018-Jun-10 21:30N 44°06' E 028°36'3 5.4
2018-Jun-10 21:00N 44°06' E 028°32'6 4.5
2018-Jun-10 19:43N 44°09' E 028°26'1 5.4
2018-Jun-10 19:30N 44°10' E 028°25'3 5.3
2018-Jun-10 19:00N 44°13' E 028°23'3 5.4
2018-Jun-10 18:30N 44°15' E 028°21'3 5.3
2018-Jun-10 18:00N 44°15' E 028°17'3 5.5
2018-Jun-10 17:30N 44°15' E 028°14'3 5.4
2018-Jun-10 17:00N 44°16' E 028°10'3 5.3
2018-Jun-10 16:30N 44°16' E 028°06'18 1.4
2018-Jun-10 03:22N 44°34' E 028°01'7 2.2
2018-Jun-10 00:16N 44°41' E 027°58'1 2.6
2018-Jun-09 23:42N 44°41' E 027°56'1 2.4
2018-Jun-09 23:26N 44°41' E 027°55'2 2.5
2018-Jun-09 22:37N 44°42' E 027°53'1 2.6
2018-Jun-09 22:24N 44°43' E 027°53'1 2.6
2018-Jun-09 21:59N 44°44' E 027°52'1 2.6
2018-Jun-09 21:30N 44°45' E 027°52'1 2.3
2018-Jun-09 21:00N 44°46' E 027°53'1 1.4
2018-Jun-09 20:30N 44°47' E 027°53'2 1.2
2018-Jun-09 19:03N 44°47' E 027°50'0 1.3
2018-Jun-09 18:47N 44°47' E 027°50'1 1.9
2018-Jun-09 18:29N 44°47' E 027°49'35 1.9
2018-Jun-08 23:41N 45°21' E 028°02'3 2.3
2018-Jun-08 22:29N 45°24' E 028°02'28 1.5
2018-Jun-08 04:02N 45°14' E 028°39'0 2.6
2018-Jun-08 03:57N 45°14' E 028°40'2 2.2
2018-Jun-08 03:09N 45°14' E 028°42'0 2.0
2018-Jun-08 02:58N 45°13' E 028°43'1 2.5
2018-Jun-08 02:30N 45°14' E 028°44'1 2.6
2018-Jun-08 01:57N 45°14' E 028°46'1 2.3
2018-Jun-08 01:28N 45°15' E 028°48'1 1.9
2018-Jun-08 00:42N 45°16' E 028°46'  
Track history (hours):
 
Tides and Currents Weather Stations Pressure Air Temp Water Temp Dewpoint Dewpoint Depression Visibility Wind Speed Wind Dir Waves Ship Positions

Munchen>>

Last reported at 2018-Jun-14 04:25 UTC. Time now 2018-Jun-18 11:27 UTC.
Position N 45°14' E 028°43'.

Length 37 m; draft 0.3 m.

Type: Towing. MMSI: 211644640.

Date/timePositionNaut miles runAvg speedWind from/ knotsBaromVisibWave heightAir tempDewpointWater temp
2018-Jun-14 04:25N 45°14' E 028°43'3 2.8
2018-Jun-14 03:24N 45°14' E 028°47'1 2.5
2018-Jun-14 03:00N 45°15' E 028°48'2 2.5
2018-Jun-14 02:14N 45°16' E 028°45'0 1.0
2018-Jun-14 01:57N 45°17' E 028°45'1 2.2
2018-Jun-14 01:30N 45°17' E 028°46'1 2.5
2018-Jun-14 01:00N 45°18' E 028°47'1 2.7
2018-Jun-14 00:30N 45°19' E 028°48'1 2.7
2018-Jun-14 00:00N 45°19' E 028°47'1 2.4
2018-Jun-13 23:30N 45°20' E 028°48'1 2.5
2018-Jun-13 22:59N 45°20' E 028°50'1 1.0
2018-Jun-13 22:26N 45°19' E 028°50'0 0.0
2018-Jun-13 21:57N 45°19' E 028°50'0 0.0
2018-Jun-13 17:57N 45°19' E 028°50'0 0.0
2018-Jun-13 17:25N 45°19' E 028°50'72 1.7
2018-Jun-11 22:41N 44°17' E 027°59'1 3.7
2018-Jun-11 22:30N 44°18' E 027°59'3 3.6
2018-Jun-11 21:41N 44°21' E 028°01'1 3.8
2018-Jun-11 21:23N 44°22' E 028°01'1 0.4
2018-Jun-11 18:16N 44°23' E 028°02'6 0.5
2018-Jun-11 06:17N 44°17' E 028°05'2 6.2
2018-Jun-11 06:00N 44°16' E 028°07'3 5.4
2018-Jun-11 05:30N 44°16' E 028°11'3 6.1
2018-Jun-11 05:00N 44°15' E 028°15'3 6.2
2018-Jun-11 04:30N 44°15' E 028°19'3 5.4
2018-Jun-11 04:00N 44°14' E 028°22'3 5.8
2018-Jun-11 03:30N 44°11' E 028°24'4 5.7
2018-Jun-11 02:44N 44°07' E 028°27'1 5.7
2018-Jun-11 02:29N 44°06' E 028°28'3 5.7
2018-Jun-11 01:58N 44°06' E 028°32'3 5.8
2018-Jun-11 01:30N 44°06' E 028°36'1 1.9
2018-Jun-11 01:00N 44°06' E 028°37'1 1.9
2018-Jun-11 00:30N 44°06' E 028°39'1 2.1
2018-Jun-11 00:00N 44°07' E 028°39'0 0.0
2018-Jun-10 23:30N 44°07' E 028°39'0 0.1
2018-Jun-10 23:00N 44°07' E 028°39'1 2.0
2018-Jun-10 22:30N 44°06' E 028°39'1 2.2
2018-Jun-10 22:00N 44°06' E 028°37'1 1.3
2018-Jun-10 21:30N 44°06' E 028°36'3 5.4
2018-Jun-10 21:00N 44°06' E 028°32'6 4.5
2018-Jun-10 19:43N 44°09' E 028°26'1 5.4
2018-Jun-10 19:30N 44°10' E 028°25'3 5.3
2018-Jun-10 19:00N 44°13' E 028°23'3 5.4
2018-Jun-10 18:30N 44°15' E 028°21'3 5.3
2018-Jun-10 18:00N 44°15' E 028°17'3 5.5
2018-Jun-10 17:30N 44°15' E 028°14'3 5.4
2018-Jun-10 17:00N 44°16' E 028°10'3 5.3
2018-Jun-10 16:30N 44°16' E 028°06'18 1.4
2018-Jun-10 03:22N 44°34' E 028°01'7 2.2
2018-Jun-10 00:16N 44°41' E 027°58'1 2.6
2018-Jun-09 23:42N 44°41' E 027°56'1 2.4
2018-Jun-09 23:26N 44°41' E 027°55'2 2.5
2018-Jun-09 22:37N 44°42' E 027°53'1 2.6
2018-Jun-09 22:24N 44°43' E 027°53'1 2.6
2018-Jun-09 21:59N 44°44' E 027°52'1 2.6
2018-Jun-09 21:30N 44°45' E 027°52'1 2.3
2018-Jun-09 21:00N 44°46' E 027°53'1 1.4
2018-Jun-09 20:30N 44°47' E 027°53'2 1.2
2018-Jun-09 19:03N 44°47' E 027°50'0 1.3
2018-Jun-09 18:47N 44°47' E 027°50'1 1.9
2018-Jun-09 18:29N 44°47' E 027°49'35 1.9
2018-Jun-08 23:41N 45°21' E 028°02'3 2.3
2018-Jun-08 22:29N 45°24' E 028°02'28 1.5
2018-Jun-08 04:02N 45°14' E 028°39'0 2.6
2018-Jun-08 03:57N 45°14' E 028°40'2 2.2
2018-Jun-08 03:09N 45°14' E 028°42'0 2.0
2018-Jun-08 02:58N 45°13' E 028°43'1 2.5
2018-Jun-08 02:30N 45°14' E 028°44'1 2.6
2018-Jun-08 01:57N 45°14' E 028°46'1 2.3
2018-Jun-08 01:28N 45°15' E 028°48'1 1.9
2018-Jun-08 00:42N 45°16' E 028°46'  

Dump ship's entire track history